Terminal Aerodrome Forecast
Issued by NWS

Home | Current Version | Previous Version | Text Only | Print | Product List | Glossary On
Versions: 1 2 3 4 5 6 7 8 9 10 11 12 13 14 15 16
000
FTUS46 KMTR 312328
TAFOAK
TAF
KOAK 312328Z 0100/0206 30013KT P6SM SKC
     FM010400 30007KT P6SM SKC
     FM011200 28004KT P6SM FEW007
     FM012100 30013KT P6SM SKC=

USA.gov is the U.S. government's official web portal to all federal, state and local government web resources and services.